Time;durP1;ratioP1;P1;durP2;ratioP2;P2;SDS_P1;SDS_P2;PMS_P1;PMS_P2;Temp;Humidity;BMP_temperature;BMP_pressure;BME280_temperature;BME280_humidity;BME280_pressure;Samples;Min_cycle;Max_cycle;Signal;HPM_P1;HPM_P2
2023/08/06 00:00:08;;;;;;;7.85;3.40;;;17.00;99.90;;;;;;5010329;28;20750;-68
2023/08/06 00:02:34;;;;;;;6.63;2.63;;;17.00;99.90;;;;;;5010015;28;20475;-68
2023/08/06 00:04:59;;;;;;;7.60;2.80;;;17.00;99.90;;;;;;5008767;28;20890;-69
2023/08/06 00:07:25;;;;;;;7.90;3.00;;;17.10;99.90;;;;;;5010255;28;20873;-69
2023/08/06 00:09:50;;;;;;;8.77;3.33;;;17.00;99.90;;;;;;5019643;28;20737;-69
2023/08/06 00:12:16;;;;;;;6.90;2.83;;;17.00;99.90;;;;;;5029991;28;20473;-69
2023/08/06 00:14:43;;;;;;;6.73;2.80;;;17.00;99.90;;;;;;5029940;28;21282;-69
2023/08/06 00:17:09;;;;;;;7.93;2.95;;;16.90;99.90;;;;;;5029925;28;20391;-69
2023/08/06 00:19:34;;;;;;;7.33;3.00;;;16.80;99.90;;;;;;5029610;28;20391;-69
2023/08/06 00:22:01;;;;;;;6.80;3.03;;;16.80;99.90;;;;;;5029714;28;20396;-68
2023/08/06 00:24:27;;;;;;;8.10;2.70;;;16.70;99.90;;;;;;5030154;28;20469;-69
2023/08/06 00:26:52;;;;;;;6.97;2.77;;;16.70;99.90;;;;;;5028711;28;20474;-69
2023/08/06 00:29:18;;;;;;;7.80;3.30;;;16.80;99.90;;;;;;5029641;28;20904;-68
2023/08/06 00:31:43;;;;;;;6.50;2.50;;;16.80;90.90;;;;;;5030091;28;20415;-69
2023/08/06 00:34:10;;;;;;;6.68;2.60;;;16.60;93.30;;;;;;5035716;28;20407;-69
2023/08/06 00:36:36;;;;;;;7.15;2.72;;;16.50;90.70;;;;;;5045433;28;20383;-68
2023/08/06 00:39:02;;;;;;;6.30;2.53;;;16.50;99.90;;;;;;5037533;28;20399;-69
2023/08/06 00:41:27;;;;;;;6.68;2.85;;;16.40;99.90;;;;;;5037327;28;20536;-69
2023/08/06 00:43:53;;;;;;;6.77;2.77;;;16.30;71.00;;;;;;5029967;28;20399;-69
2023/08/06 00:46:19;;;;;;;6.80;2.50;;;16.20;92.50;;;;;;5032455;28;20399;-69
2023/08/06 00:48:44;;;;;;;7.47;3.30;;;16.10;95.30;;;;;;5033313;28;20750;-69
2023/08/06 00:51:11;;;;;;;5.67;2.20;;;16.10;53.70;;;;;;5033858;28;20698;-69
2023/08/06 00:53:39;;;;;;;7.07;2.80;;;16.00;71.70;;;;;;5035924;28;20386;-69
2023/08/06 00:56:05;;;;;;;6.90;2.30;;;16.00;99.90;;;;;;5037172;28;20419;-68
2023/08/06 00:58:30;;;;;;;5.95;2.20;;;15.90;86.40;;;;;;5030532;28;20774;-69
2023/08/06 01:00:56;;;;;;;6.95;2.80;;;15.90;90.00;;;;;;5008036;28;20449;-68
2023/08/06 01:03:21;;;;;;;10.27;3.00;;;15.90;60.40;;;;;;5034288;28;20470;-68
2023/08/06 01:05:47;;;;;;;7.00;2.60;;;15.80;75.10;;;;;;5032697;28;20506;-69
2023/08/06 01:08:40;;;;;;;7.27;2.63;;;15.70;74.20;;;;;;5033336;28;20477;-68
2023/08/06 01:11:41;;;;;;;7.25;2.40;;;15.60;86.80;;;;;;5017056;28;20415;-68
2023/08/06 01:14:21;;;;;;;5.70;2.10;;;15.50;99.90;;;;;;4991000;28;20890;-68
2023/08/06 01:16:48;;;;;;;10.02;2.92;;;15.50;99.90;;;;;;4989202;28;20394;-68
2023/08/06 01:19:18;;;;;;;6.80;2.60;;;15.50;99.90;;;;;;4991055;28;20398;-68
2023/08/06 01:21:43;;;;;;;12.63;2.60;;;15.50;99.90;;;;;;4990334;28;20910;-68
2023/08/06 01:24:09;;;;;;;6.23;2.53;;;15.40;90.40;;;;;;4990045;28;20478;-69
2023/08/06 01:26:45;;;;;;;7.10;1.97;;;15.30;99.90;;;;;;4990121;28;20440;-69
2023/08/06 01:29:18;;;;;;;5.82;1.90;;;15.30;86.60;;;;;;4990507;28;20907;-69
2023/08/06 01:31:46;;;;;;;6.03;2.10;;;15.30;95.60;;;;;;4989082;28;20409;-69
2023/08/06 01:34:17;;;;;;;6.07;2.10;;;15.40;97.90;;;;;;4988938;28;20446;-69
2023/08/06 01:36:44;;;;;;;6.35;2.10;;;15.40;97.20;;;;;;4990413;28;20402;-69
2023/08/06 01:39:10;;;;;;;6.55;1.98;;;15.40;53.50;;;;;;4989911;28;20402;-69
2023/08/06 01:41:35;;;;;;;5.00;2.00;;;15.40;42.10;;;;;;4989219;28;20402;-69
2023/08/06 01:44:01;;;;;;;6.25;2.13;;;15.50;44.60;;;;;;4989458;28;20468;-69
2023/08/06 01:46:26;;;;;;;5.85;1.77;;;15.50;36.00;;;;;;4988663;28;20418;-69
2023/08/06 01:48:52;;;;;;;6.70;2.17;;;15.40;7.40;;;;;;4989233;28;20399;-69
2023/08/06 01:51:17;;;;;;;9.50;2.30;;;15.40;27.00;;;;;;4983289;28;20400;-68
2023/08/06 01:53:43;;;;;;;6.20;2.20;;;15.50;9.80;;;;;;4970872;28;20392;-69
2023/08/06 01:56:08;;;;;;;7.67;2.30;;;15.50;7.30;;;;;;4969228;28;20566;-69
2023/08/06 01:58:34;;;;;;;6.03;2.10;;;15.50;13.80;;;;;;4968954;28;20404;-69
2023/08/06 02:01:01;;;;;;;6.82;2.13;;;15.50;1.00;;;;;;4969230;28;20869;-69
2023/08/06 02:03:26;;;;;;;6.80;1.90;;;15.50;1.00;;;;;;4969078;28;20893;-68
2023/08/06 02:05:52;;;;;;;5.65;1.90;;;15.50;1.00;;;;;;4968845;28;20385;-68
2023/08/06 02:08:17;;;;;;;6.93;1.90;;;15.50;1.00;;;;;;4974436;28;20394;-68
2023/08/06 02:10:44;;;;;;;7.63;2.00;;;15.40;1.00;;;;;;4989224;28;20759;-68
2023/08/06 02:13:09;;;;;;;5.60;1.77;;;15.30;1.00;;;;;;5002222;28;20423;-68
2023/08/06 02:15:35;;;;;;;6.53;1.90;;;15.20;1.00;;;;;;5008007;28;20425;-68
2023/08/06 02:18:00;;;;;;;4.80;1.53;;;15.30;7.70;;;;;;5007992;28;20468;-68
2023/08/06 02:20:26;;;;;;;4.85;1.55;;;15.20;1.00;;;;;;5008190;28;20962;-68
2023/08/06 02:22:51;;;;;;;6.30;1.85;;;15.20;1.00;;;;;;5008343;28;20393;-68
2023/08/06 02:25:17;;;;;;;5.77;1.70;;;15.20;1.00;;;;;;5007418;28;20381;-68
2023/08/06 02:27:42;;;;;;;9.87;2.00;;;15.10;1.00;;;;;;5008586;28;20396;-68
2023/08/06 02:30:08;;;;;;;7.00;1.90;;;15.10;1.00;;;;;;5011304;28;20794;-68
2023/08/06 02:32:35;;;;;;;5.40;1.50;;;15.10;1.00;;;;;;5012198;28;20396;-68
2023/08/06 02:35:01;;;;;;;4.80;1.60;;;15.10;1.00;;;;;;5010837;28;20425;-68
2023/08/06 02:37:27;;;;;;;7.37;2.00;;;15.00;1.00;;;;;;5011832;28;20393;-69
2023/08/06 02:39:54;;;;;;;5.00;1.70;;;15.00;1.00;;;;;;5012052;28;20769;-69
2023/08/06 02:42:19;;;;;;;5.10;1.70;;;14.90;1.00;;;;;;5011228;28;20442;-69
2023/08/06 02:44:45;;;;;;;6.30;1.50;;;14.90;1.00;;;;;;5012035;28;20409;-69
2023/08/06 02:47:10;;;;;;;6.77;1.50;;;14.90;1.00;;;;;;5013093;28;20464;-68
2023/08/06 02:49:36;;;;;;;5.88;1.50;;;14.80;1.50;;;;;;5011839;28;20396;-68
2023/08/06 02:52:01;;;;;;;5.75;1.80;;;14.80;1.00;;;;;;5011932;28;20465;-68
2023/08/06 02:54:27;;;;;;;5.43;1.83;;;14.80;1.00;;;;;;5012059;28;20503;-68
2023/08/06 02:56:52;;;;;;;5.87;1.80;;;14.80;1.00;;;;;;5011806;28;20393;-68
2023/08/06 02:59:18;;;;;;;6.33;1.80;;;14.80;16.00;;;;;;5003891;28;20897;-68
2023/08/06 03:01:43;;;;;;;5.53;1.60;;;14.80;11.40;;;;;;5013065;28;20393;-68
2023/08/06 03:04:09;;;;;;;7.80;1.70;;;14.80;1.00;;;;;;5013720;28;20397;-68
2023/08/06 03:06:35;;;;;;;5.90;1.90;;;14.80;1.00;;;;;;5013277;28;20397;-68
2023/08/06 03:09:00;;;;;;;5.40;1.60;;;14.90;1.00;;;;;;5012300;28;20396;-68
2023/08/06 03:11:26;;;;;;;11.60;2.00;;;14.80;1.00;;;;;;5012154;28;20399;-68
2023/08/06 03:13:51;;;;;;;5.60;1.50;;;14.80;1.00;;;;;;5031240;28;20403;-68
2023/08/06 03:16:17;;;;;;;5.60;1.70;;;14.80;1.00;;;;;;5026101;28;20403;-68
2023/08/06 03:18:42;;;;;;;5.87;1.60;;;14.80;1.00;;;;;;5012272;28;20769;-69
2023/08/06 03:21:08;;;;;;;6.47;1.53;;;14.80;1.00;;;;;;5011594;28;20404;-69
2023/08/06 03:23:33;;;;;;;6.63;1.80;;;14.90;1.00;;;;;;5012930;28;20384;-68
2023/08/06 03:26:02;;;;;;;5.50;1.53;;;15.00;1.00;;;;;;4995108;28;20590;-68
2023/08/06 03:28:28;;;;;;;5.82;1.63;;;15.20;1.00;;;;;;5011971;28;20521;-68
2023/08/06 03:31:01;;;;;;;5.90;1.70;;;15.20;1.00;;;;;;5011206;28;20404;-68
2023/08/06 03:33:26;;;;;;;6.00;1.35;;;15.20;1.00;;;;;;5017652;28;20399;-68
2023/08/06 03:35:52;;;;;;;6.20;1.80;;;15.30;1.00;;;;;;5030669;28;20465;-68
2023/08/06 03:38:17;;;;;;;5.00;1.40;;;15.40;1.00;;;;;;5030602;28;20402;-68
2023/08/06 03:40:43;;;;;;;5.80;1.83;;;15.50;1.00;;;;;;5030028;28;20379;-68
2023/08/06 03:43:08;;;;;;;5.30;1.52;;;15.60;1.00;;;;;;5030598;28;20406;-68
2023/08/06 03:45:34;;;;;;;5.53;1.67;;;15.60;1.00;;;;;;5030404;28;20406;-68
2023/08/06 03:47:59;;;;;;;5.30;1.50;;;15.60;1.00;;;;;;5030423;28;20762;-68
2023/08/06 03:50:25;;;;;;;5.03;1.23;;;15.50;1.00;;;;;;5029675;28;20391;-68
2023/08/06 03:52:50;;;;;;;5.33;1.50;;;15.60;14.20;;;;;;5030781;28;20448;-68
2023/08/06 03:55:16;;;;;;;5.68;1.50;;;15.60;15.80;;;;;;5030180;28;20946;-68
2023/08/06 03:57:41;;;;;;;6.72;1.83;;;15.60;39.90;;;;;;5031906;28;20884;-68
2023/08/06 04:00:07;;;;;;;5.37;1.43;;;15.60;42.50;;;;;;5012520;28;20389;-68
2023/08/06 04:02:33;;;;;;;5.93;1.67;;;15.60;10.10;;;;;;5010377;28;20690;-68
2023/08/06 04:04:59;;;;;;;5.13;1.40;;;15.50;1.00;;;;;;5010315;28;20454;-68
2023/08/06 04:07:25;;;;;;;5.75;1.80;;;15.60;9.80;;;;;;5011028;28;20437;-68
2023/08/06 04:10:17;;;;;;;6.32;1.60;;;15.70;1.00;;;;;;5010140;28;20405;-69
2023/08/06 04:12:43;;;;;;;5.00;1.33;;;15.70;1.00;;;;;;5006058;28;20421;-68
2023/08/06 04:15:09;;;;;;;5.75;1.80;;;15.70;1.00;;;;;;5010892;28;20527;-68
2023/08/06 04:17:35;;;;;;;6.10;1.40;;;15.70;1.00;;;;;;5009885;28;20412;-68
2023/08/06 04:20:01;;;;;;;5.40;1.90;;;15.60;1.00;;;;;;5010076;28;20467;-68
2023/08/06 04:22:27;;;;;;;6.00;1.63;;;15.50;1.00;;;;;;5010081;28;20408;-68
2023/08/06 04:24:52;;;;;;;5.13;1.40;;;15.40;1.00;;;;;;5010845;28;20392;-68
2023/08/06 04:27:19;;;;;;;5.80;1.77;;;15.40;1.00;;;;;;5009723;28;20404;-68
2023/08/06 04:29:45;;;;;;;6.47;1.55;;;15.30;1.00;;;;;;5009733;28;20397;-68
2023/08/06 04:32:11;;;;;;;5.40;1.70;;;15.50;4.80;;;;;;5010407;28;20443;-68
2023/08/06 04:34:37;;;;;;;6.03;1.73;;;15.60;1.00;;;;;;5009691;28;20416;-68
2023/08/06 04:37:03;;;;;;;6.47;1.80;;;15.60;1.00;;;;;;5009768;28;20393;-68
2023/08/06 04:39:29;;;;;;;5.05;1.15;;;15.60;1.00;;;;;;5009730;28;20480;-69
2023/08/06 04:41:58;;;;;;;5.40;1.60;;;15.60;1.00;;;;;;5010090;28;20475;-69
2023/08/06 04:44:23;;;;;;;5.10;1.10;;;15.60;1.00;;;;;;5009804;28;20399;-69
2023/08/06 04:46:49;;;;;;;6.10;1.80;;;15.60;1.00;;;;;;5009344;28;20763;-69
2023/08/06 04:49:15;;;;;;;6.10;1.55;;;15.70;1.00;;;;;;5009289;28;20397;-69
2023/08/06 04:51:40;;;;;;;5.30;1.70;;;15.80;1.30;;;;;;5009494;28;20719;-69
2023/08/06 04:54:06;;;;;;;7.00;1.70;;;15.80;2.10;;;;;;5010007;28;20474;-69
2023/08/06 04:56:32;;;;;;;5.77;1.40;;;15.80;1.00;;;;;;5009263;28;20405;-68
2023/08/06 04:58:58;;;;;;;6.07;1.65;;;15.70;1.00;;;;;;5009924;28;20424;-68
2023/08/06 05:01:24;;;;;;;5.30;1.40;;;15.80;1.00;;;;;;5009163;28;20397;-68
2023/08/06 05:03:49;;;;;;;4.93;1.17;;;15.90;1.00;;;;;;5008949;28;20385;-69
2023/08/06 05:06:15;;;;;;;4.97;1.20;;;16.00;1.00;;;;;;5008803;28;20995;-69
2023/08/06 05:08:52;;;;;;;5.47;1.50;;;16.10;1.00;;;;;;5011137;28;20476;-69
2023/08/06 05:11:18;;;;;;;5.07;1.60;;;16.20;1.00;;;;;;5011501;28;20520;-69
2023/08/06 05:13:44;;;;;;;5.50;1.40;;;16.30;1.00;;;;;;5011011;28;20437;-69
2023/08/06 05:16:09;;;;;;;4.80;1.20;;;16.40;1.00;;;;;;5011544;28;20444;-69
2023/08/06 05:18:37;;;;;;;5.10;1.40;;;16.50;1.00;;;;;;5011960;28;20397;-69
2023/08/06 05:21:03;;;;;;;6.38;1.40;;;16.50;1.00;;;;;;5009822;28;20416;-70
2023/08/06 05:23:28;;;;;;;4.60;1.20;;;16.60;1.00;;;;;;5009218;28;20507;-69
2023/08/06 05:25:54;;;;;;;4.70;1.00;;;16.70;1.00;;;;;;4990949;28;20416;-69
2023/08/06 05:28:19;;;;;;;5.30;1.50;;;16.60;1.00;;;;;;5008513;28;20408;-69
2023/08/06 05:30:45;;;;;;;4.70;1.00;;;16.70;1.00;;;;;;5007983;28;20872;-70
2023/08/06 05:33:10;;;;;;;4.40;1.10;;;17.00;1.00;;;;;;5009847;28;20377;-69
2023/08/06 05:35:36;;;;;;;6.10;1.00;;;17.10;1.00;;;;;;5008386;28;20425;-69
2023/08/06 05:38:01;;;;;;;5.33;1.30;;;17.30;1.00;;;;;;5008602;28;20400;-69
2023/08/06 05:40:27;;;;;;;8.80;1.40;;;17.40;1.00;;;;;;5008506;28;20412;-69
2023/08/06 05:42:55;;;;;;;5.20;1.00;;;17.40;99.90;;;;;;5008661;28;20400;-69
2023/08/06 05:45:21;;;;;;;4.60;1.13;;;17.60;99.90;;;;;;5008385;28;20392;-69
2023/08/06 05:47:48;;;;;;;4.43;0.90;;;17.60;99.90;;;;;;5009445;28;20408;-69
2023/08/06 05:50:13;;;;;;;5.00;0.85;;;17.50;99.90;;;;;;4992550;28;20483;-69
2023/08/06 05:52:40;;;;;;;6.57;1.27;;;17.50;99.90;;;;;;5009840;28;20925;-69
2023/08/06 05:55:07;;;;;;;5.90;1.30;;;17.50;99.90;;;;;;5009733;28;20470;-69
2023/08/06 05:57:32;;;;;;;4.20;0.80;;;17.20;99.90;;;;;;5011041;28;20483;-69
2023/08/06 05:59:58;;;;;;;4.53;0.80;;;17.10;99.90;;;;;;5011129;28;20511;-69
2023/08/06 06:02:23;;;;;;;4.60;0.90;;;17.00;1.00;;;;;;5010995;28;20734;-69
2023/08/06 06:04:50;;;;;;;5.30;0.87;;;17.00;1.00;;;;;;5007867;28;20413;-69
2023/08/06 06:07:15;;;;;;;6.30;0.90;;;16.80;1.00;;;;;;5010117;28;20485;-69
2023/08/06 06:09:41;;;;;;;4.40;0.87;;;16.60;1.00;;;;;;5012827;28;20858;-69
2023/08/06 06:12:07;;;;;;;5.87;0.90;;;16.50;1.00;;;;;;5009764;28;20428;-69
2023/08/06 06:14:33;;;;;;;4.03;0.60;;;16.60;1.00;;;;;;4992416;28;20432;-69
2023/08/06 06:17:00;;;;;;;4.10;0.90;;;16.60;1.00;;;;;;5010361;28;20500;-68
2023/08/06 06:19:25;;;;;;;4.40;0.80;;;16.30;1.00;;;;;;5009563;28;20550;-68
2023/08/06 06:21:51;;;;;;;4.60;0.80;;;16.10;1.00;;;;;;5009875;28;20392;-68
2023/08/06 06:24:16;;;;;;;7.60;0.80;;;15.80;10.70;;;;;;5023116;28;20413;-68
2023/08/06 06:26:42;;;;;;;4.97;0.80;;;15.80;1.00;;;;;;5011510;28;20437;-69
2023/08/06 06:29:07;;;;;;;3.80;0.43;;;15.70;5.50;;;;;;5032051;28;20426;-69
2023/08/06 06:31:33;;;;;;;4.10;0.70;;;15.70;1.00;;;;;;5013768;28;20529;-69
2023/08/06 06:33:58;;;;;;;4.20;0.77;;;15.70;6.50;;;;;;5032561;28;20436;-69
2023/08/06 06:36:24;;;;;;;6.00;0.70;;;15.60;1.00;;;;;;5032368;28;20444;-68
2023/08/06 06:38:50;;;;;;;8.00;0.80;;;15.60;1.00;;;;;;5013281;28;20394;-68
2023/08/06 06:41:16;;;;;;;3.90;0.70;;;15.70;11.00;;;;;;5006609;28;20407;-68
2023/08/06 06:43:41;;;;;;;5.10;0.70;;;15.70;1.00;;;;;;5032650;28;20520;-69
2023/08/06 06:46:07;;;;;;;3.90;0.60;;;15.50;38.20;;;;;;5029269;28;21038;-69
2023/08/06 06:48:34;;;;;;;4.10;0.73;;;15.40;69.90;;;;;;5030112;28;20778;-69
2023/08/06 06:51:00;;;;;;;4.07;0.60;;;15.50;99.90;;;;;;5029686;28;20401;-69
2023/08/06 06:53:28;;;;;;;6.30;1.27;;;15.70;61.20;;;;;;5031336;28;20387;-71
2023/08/06 06:56:04;;;;;;;3.70;0.50;;;15.70;1.00;;;;;;5030262;28;20485;-69
2023/08/06 06:58:30;;;;;;;4.20;0.60;;;15.70;1.30;;;;;;5013415;28;20423;-68
2023/08/06 07:00:57;;;;;;;3.75;0.50;;;15.60;1.00;;;;;;5008549;28;20416;-68
2023/08/06 07:03:22;;;;;;;3.80;0.60;;;15.50;1.00;;;;;;5008206;28;20393;-68
2023/08/06 07:05:49;;;;;;;4.20;0.60;;;15.70;5.90;;;;;;5007252;28;20419;-68
2023/08/06 07:08:14;;;;;;;5.50;0.70;;;15.90;1.00;;;;;;5007494;28;20428;-68
2023/08/06 07:10:43;;;;;;;4.32;0.50;;;16.00;1.00;;;;;;5008209;28;20397;-68
2023/08/06 07:13:09;;;;;;;3.60;0.40;;;16.00;1.00;;;;;;5007763;28;20405;-69
2023/08/06 07:15:35;;;;;;;5.20;0.70;;;15.80;1.00;;;;;;5016660;28;20416;-69
2023/08/06 07:18:01;;;;;;;3.70;0.40;;;15.90;1.00;;;;;;5014442;28;20412;-68
2023/08/06 07:20:29;;;;;;;4.70;0.60;;;15.80;1.00;;;;;;5013074;28;20389;-68
2023/08/06 07:22:54;;;;;;;3.70;0.40;;;15.80;1.00;;;;;;5011530;28;20416;-68
2023/08/06 07:25:20;;;;;;;3.60;0.30;;;15.60;1.00;;;;;;5014746;28;20764;-68
2023/08/06 07:27:45;;;;;;;3.70;0.50;;;15.60;1.00;;;;;;5014013;28;20396;-69
2023/08/06 07:30:11;;;;;;;3.80;0.43;;;15.50;1.00;;;;;;5016411;28;21108;-67
2023/08/06 07:32:38;;;;;;;3.70;0.40;;;15.40;1.00;;;;;;5013502;28;20462;-67
2023/08/06 07:35:03;;;;;;;3.78;0.45;;;15.50;23.80;;;;;;5013591;28;20428;-68
2023/08/06 07:37:29;;;;;;;3.60;0.40;;;15.50;1.00;;;;;;5017401;28;20456;-68
2023/08/06 07:39:56;;;;;;;3.60;0.40;;;15.50;1.00;;;;;;5015260;28;20921;-68
2023/08/06 07:42:21;;;;;;;3.60;0.50;;;15.40;24.30;;;;;;5012715;28;20482;-68
2023/08/06 07:44:55;;;;;;;4.10;0.50;;;15.50;1.00;;;;;;5014765;28;20413;-70
2023/08/06 07:47:22;;;;;;;3.80;0.40;;;15.60;17.70;;;;;;5015285;28;20458;-69
2023/08/06 07:49:48;;;;;;;3.60;0.30;;;15.80;1.00;;;;;;4996839;28;20472;-68
2023/08/06 07:52:13;;;;;;;5.30;0.40;;;16.00;1.00;;;;;;5001354;28;20413;-68
2023/08/06 07:54:39;;;;;;;3.70;0.40;;;16.10;1.00;;;;;;5010766;28;20460;-68
2023/08/06 07:57:05;;;;;;;3.80;0.50;;;15.80;1.00;;;;;;5009609;28;20413;-68
2023/08/06 07:59:30;;;;;;;3.70;0.50;;;16.00;1.00;;;;;;5006677;28;20804;-68
2023/08/06 08:01:56;;;;;;;3.60;0.40;;;16.10;1.00;;;;;;5004070;28;20420;-68
2023/08/06 08:04:21;;;;;;;3.80;0.40;;;15.90;1.00;;;;;;5011249;28;20936;-68
2023/08/06 08:06:47;;;;;;;3.70;0.50;;;15.90;1.00;;;;;;5009963;28;20420;-68
2023/08/06 08:09:13;;;;;;;3.77;0.47;;;16.10;1.00;;;;;;5006831;28;20428;-68
2023/08/06 08:11:40;;;;;;;3.75;0.50;;;16.20;1.00;;;;;;5004630;28;20416;-68
2023/08/06 08:14:05;;;;;;;3.67;0.38;;;16.50;1.00;;;;;;4987120;28;20436;-69
2023/08/06 08:16:31;;;;;;;3.80;0.50;;;16.90;1.00;;;;;;4995298;28;20401;-68
2023/08/06 08:18:56;;;;;;;3.70;0.40;;;17.40;1.00;;;;;;4999773;28;20406;-69
2023/08/06 08:21:24;;;;;;;4.40;0.40;;;18.00;1.00;;;;;;4996733;28;20732;-69
2023/08/06 08:23:50;;;;;;;3.80;0.40;;;18.30;1.00;;;;;;5004121;28;20926;-68
2023/08/06 08:26:15;;;;;;;4.30;0.50;;;18.00;1.00;;;;;;5000092;28;21032;-69
2023/08/06 08:28:41;;;;;;;3.90;0.50;;;18.10;99.90;;;;;;4989605;28;20410;-72
2023/08/06 08:31:11;;;;;;;3.90;0.40;;;18.50;99.90;;;;;;5003096;28;20423;-72
2023/08/06 08:33:37;;;;;;;4.00;0.40;;;18.30;1.00;;;;;;5000908;28;20806;-73
2023/08/06 08:36:03;;;;;;;3.80;0.40;;;17.90;1.00;;;;;;5005946;28;20422;-72
2023/08/06 08:38:28;;;;;;;5.20;0.40;;;17.80;99.90;;;;;;5007826;28;20959;-73
2023/08/06 08:40:54;;;;;;;3.80;0.30;;;17.70;99.90;;;;;;4998847;28;20426;-73
2023/08/06 08:43:23;;;;;;;3.90;0.40;;;17.50;99.90;;;;;;5008014;28;20401;-72
2023/08/06 08:45:58;;;;;;;3.80;0.40;;;17.10;99.90;;;;;;4998055;28;20425;-72
2023/08/06 08:48:25;;;;;;;3.90;0.40;;;17.00;99.90;;;;;;4999085;28;20434;-72
2023/08/06 08:50:51;;;;;;;4.80;0.40;;;17.20;99.90;;;;;;5008392;28;20496;-72
2023/08/06 08:53:17;;;;;;;3.80;0.30;;;17.00;99.90;;;;;;4996133;28;20588;-73
2023/08/06 08:55:47;;;;;;;3.70;0.30;;;17.10;99.90;;;;;;4995655;28;20434;-73
2023/08/06 08:58:13;;;;;;;3.70;0.40;;;16.70;1.00;;;;;;5004515;28;20415;-73
2023/08/06 09:00:41;;;;;;;3.70;0.40;;;16.60;1.00;;;;;;5005281;28;20495;-72
2023/08/06 09:03:07;;;;;;;4.10;0.40;;;16.60;1.00;;;;;;4999482;28;20461;-73
2023/08/06 09:05:33;;;;;;;3.70;0.30;;;16.50;1.00;;;;;;5002762;28;20447;-72
2023/08/06 09:08:03;;;;;;;3.70;0.40;;;16.60;1.00;;;;;;4998112;28;20407;-73
2023/08/06 09:10:30;;;;;;;3.70;0.40;;;16.50;1.00;;;;;;4989991;28;20412;-73
2023/08/06 09:12:57;;;;;;;3.80;0.47;;;16.60;1.00;;;;;;4978323;28;20492;-73
2023/08/06 09:15:26;;;;;;;3.60;0.40;;;16.60;1.00;;;;;;4983557;28;20919;-73
2023/08/06 09:17:55;;;;;;;3.70;0.40;;;16.50;1.00;;;;;;4984990;28;20481;-73
2023/08/06 09:20:21;;;;;;;3.80;0.40;;;16.60;1.00;;;;;;4992227;28;20419;-68
2023/08/06 09:22:48;;;;;;;3.60;0.40;;;16.40;1.00;;;;;;4980427;28;20413;-68
2023/08/06 09:25:24;;;;;;;3.60;0.30;;;16.30;3.00;;;;;;4980423;28;20903;-68
2023/08/06 09:27:54;;;;;;;8.00;0.50;;;16.30;27.40;;;;;;4976036;28;20406;-68
2023/08/06 09:30:35;;;;;;;3.60;0.30;;;16.30;52.80;;;;;;4979760;28;20423;-69
2023/08/06 09:33:00;;;;;;;3.70;0.40;;;16.60;1.00;;;;;;4977871;28;20414;-68
2023/08/06 09:35:31;;;;;;;3.60;0.30;;;17.00;1.00;;;;;;4979910;28;20490;-68
2023/08/06 09:38:06;;;;;;;3.60;0.30;;;17.20;1.00;;;;;;4983080;28;20445;-68
2023/08/06 09:40:32;;;;;;;3.70;0.30;;;17.00;1.00;;;;;;4983919;28;20855;-69
2023/08/06 09:42:58;;;;;;;3.60;0.30;;;16.80;1.00;;;;;;4980704;28;20421;-68
2023/08/06 09:45:32;;;;;;;3.70;0.35;;;16.30;1.00;;;;;;4984764;28;20406;-68
2023/08/06 09:47:58;;;;;;;3.60;0.30;;;16.10;1.00;;;;;;4982144;28;20412;-69
2023/08/06 09:50:33;;;;;;;3.60;0.40;;;16.10;1.00;;;;;;4982179;28;20427;-69
2023/08/06 09:53:00;;;;;;;3.60;0.40;;;16.40;1.00;;;;;;4984922;28;20483;-68
2023/08/06 09:55:27;;;;;;;3.75;0.40;;;16.50;1.00;;;;;;4991538;28;20439;-68
2023/08/06 09:57:53;;;;;;;3.60;0.40;;;16.50;1.00;;;;;;4981682;28;20443;-68
2023/08/06 10:00:20;;;;;;;3.80;0.40;;;16.30;1.00;;;;;;4983415;28;20441;-68
2023/08/06 10:02:46;;;;;;;3.67;0.30;;;16.30;1.00;;;;;;4977054;28;20414;-68
2023/08/06 10:05:12;;;;;;;3.70;0.40;;;16.30;1.00;;;;;;4988899;28;20525;-68
2023/08/06 10:07:39;;;;;;;3.70;0.50;;;16.30;1.00;;;;;;4976410;28;20511;-68
2023/08/06 10:10:07;;;;;;;3.70;0.40;;;16.20;1.00;;;;;;4981096;28;20430;-68
2023/08/06 10:12:49;;;;;;;6.40;0.60;;;16.30;1.00;;;;;;4991080;28;20434;-68
2023/08/06 10:15:19;;;;;;;3.80;0.50;;;16.40;1.00;;;;;;4998503;28;20436;-68
2023/08/06 10:17:48;;;;;;;3.60;0.30;;;16.50;1.00;;;;;;5007088;28;20499;-68
2023/08/06 10:20:14;;;;;;;3.60;0.30;;;16.60;1.00;;;;;;5001597;28;20776;-68
2023/08/06 10:22:44;;;;;;;3.70;0.30;;;16.60;99.90;;;;;;4978467;28;20519;-69
2023/08/06 10:25:09;;;;;;;3.70;0.40;;;16.80;99.90;;;;;;5000730;28;20413;-68
2023/08/06 10:27:41;;;;;;;3.80;0.50;;;17.20;1.00;;;;;;4997909;28;20419;-67
2023/08/06 10:30:33;;;;;;;3.80;0.40;;;17.30;1.00;;;;;;5007284;28;20533;-68
2023/08/06 10:33:02;;;;;;;3.80;0.30;;;17.30;99.90;;;;;;4993524;28;20810;-68
2023/08/06 10:35:49;;;;;;;3.80;0.40;;;16.90;93.50;;;;;;5002904;28;20543;-68
2023/08/06 10:38:21;;;;;;;4.20;0.60;;;16.70;1.00;;;;;;5000011;28;20416;-67
2023/08/06 10:40:53;;;;;;;3.80;0.40;;;16.60;99.90;;;;;;4996901;28;20419;-68
2023/08/06 10:43:27;;;;;;;3.80;0.40;;;16.90;99.90;;;;;;4994524;28;20987;-68
2023/08/06 10:45:53;;;;;;;3.90;0.40;;;16.90;99.90;;;;;;4994601;28;20691;-68
2023/08/06 10:48:41;;;;;;;3.80;0.40;;;16.80;99.90;;;;;;4997719;28;20407;-69
2023/08/06 10:51:09;;;;;;;3.88;0.35;;;16.60;1.00;;;;;;5004611;28;20540;-68
2023/08/06 10:53:41;;;;;;;4.10;0.60;;;16.50;1.00;;;;;;4990858;28;20533;-69
2023/08/06 10:56:39;;;;;;;4.15;0.60;;;16.60;1.00;;;;;;4990822;28;20513;-69
2023/08/06 10:59:05;;;;;;;3.80;0.40;;;16.40;99.90;;;;;;4966816;28;20457;-69
2023/08/06 11:01:35;;;;;;;3.90;0.50;;;16.30;99.90;;;;;;4996801;28;20408;-68
2023/08/06 11:04:02;;;;;;;4.10;0.50;;;16.10;1.00;;;;;;4993931;28;20411;-68
2023/08/06 11:06:28;;;;;;;4.10;0.80;;;15.90;1.00;;;;;;4991622;28;20489;-68
2023/08/06 11:08:54;;;;;;;3.90;0.60;;;15.80;1.00;;;;;;4991789;28;20820;-69
2023/08/06 11:11:23;;;;;;;4.07;0.68;;;15.90;1.00;;;;;;4995951;28;20418;-68
2023/08/06 11:13:51;;;;;;;3.80;0.50;;;15.70;1.00;;;;;;5008279;28;20417;-69
2023/08/06 11:16:24;;;;;;;4.28;0.60;;;15.70;1.00;;;;;;4984711;28;20452;-69
2023/08/06 11:18:51;;;;;;;9.20;0.90;;;16.00;1.00;;;;;;4986001;28;20393;-70
2023/08/06 11:21:24;;;;;;;3.83;0.50;;;16.10;1.00;;;;;;4996304;28;20810;-68
2023/08/06 11:23:51;;;;;;;3.90;0.60;;;16.10;1.00;;;;;;5019388;28;20417;-68
2023/08/06 11:26:20;;;;;;;4.30;0.63;;;16.00;1.00;;;;;;4999094;28;20410;-69
2023/08/06 11:28:46;;;;;;;3.90;0.50;;;15.90;1.00;;;;;;5002205;28;20412;-69
2023/08/06 11:31:22;;;;;;;3.90;0.50;;;15.90;99.90;;;;;;4992792;28;20409;-69
2023/08/06 11:33:49;;;;;;;4.00;0.70;;;15.90;1.00;;;;;;4998832;28;20412;-70
2023/08/06 11:36:15;;;;;;;4.32;0.60;;;16.10;1.00;;;;;;4991864;28;20434;-69
2023/08/06 11:38:40;;;;;;;4.00;0.60;;;15.80;99.90;;;;;;5008254;28;20399;-69
2023/08/06 11:41:07;;;;;;;4.20;0.80;;;15.80;99.90;;;;;;4996736;28;20413;-69
2023/08/06 11:43:32;;;;;;;4.50;0.93;;;15.80;1.00;;;;;;4995294;28;20440;-69
2023/08/06 11:46:00;;;;;;;3.80;0.50;;;15.60;1.00;;;;;;5005342;28;20412;-69
2023/08/06 11:48:25;;;;;;;5.70;0.60;;;15.50;1.00;;;;;;5007311;28;20416;-69
2023/08/06 11:50:57;;;;;;;4.20;0.90;;;15.40;1.00;;;;;;4986893;28;20774;-69
2023/08/06 11:53:27;;;;;;;4.32;0.70;;;15.60;1.00;;;;;;5008420;28;20889;-69
2023/08/06 11:55:53;;;;;;;4.45;0.90;;;15.30;1.00;;;;;;4998225;28;20430;-68
2023/08/06 11:58:18;;;;;;;5.03;1.50;;;15.20;1.00;;;;;;5004702;28;20404;-68
2023/08/06 12:00:47;;;;;;;4.00;0.70;;;15.10;1.00;;;;;;5000616;28;20446;-69
2023/08/06 12:03:14;;;;;;;4.15;0.65;;;15.00;18.40;;;;;;4991176;28;20927;-68
2023/08/06 12:05:40;;;;;;;4.70;0.90;;;14.70;16.80;;;;;;5005161;28;20414;-68
2023/08/06 12:08:06;;;;;;;6.57;1.10;;;14.50;99.90;;;;;;5001229;28;20492;-68
2023/08/06 12:10:32;;;;;;;4.00;0.90;;;14.60;99.90;;;;;;5004193;28;20480;-68
2023/08/06 12:12:58;;;;;;;4.70;1.02;;;14.40;70.40;;;;;;5008230;28;20432;-68
2023/08/06 12:15:24;;;;;;;6.90;1.17;;;14.30;99.90;;;;;;4997362;28;20424;-67
2023/08/06 12:17:49;;;;;;;7.40;1.33;;;14.20;99.90;;;;;;5002023;28;20429;-68
2023/08/06 12:20:15;;;;;;;4.30;0.80;;;14.30;99.90;;;;;;5000125;28;20412;-68
2023/08/06 12:22:41;;;;;;;4.95;1.00;;;14.40;99.90;;;;;;4996482;28;20926;-68
2023/08/06 12:25:12;;;;;;;4.38;0.90;;;14.50;99.90;;;;;;5006839;28;20424;-68
2023/08/06 12:27:39;;;;;;;5.00;1.52;;;14.20;99.90;;;;;;5006393;28;20404;-68
2023/08/06 12:30:05;;;;;;;4.80;1.02;;;14.40;99.90;;;;;;4975639;28;20518;-69
2023/08/06 12:32:33;;;;;;;4.30;0.82;;;14.50;99.90;;;;;;5006861;28;20508;-68
2023/08/06 12:35:00;;;;;;;4.78;1.13;;;14.60;90.00;;;;;;4994531;28;20472;-69
2023/08/06 12:37:25;;;;;;;4.23;0.90;;;14.70;50.10;;;;;;4989398;28;20447;-69
2023/08/06 12:39:51;;;;;;;6.70;1.33;;;14.90;1.00;;;;;;4989831;28;20444;-69
2023/08/06 12:42:17;;;;;;;5.07;1.20;;;14.90;11.10;;;;;;4996718;28;20418;-69
2023/08/06 12:44:42;;;;;;;4.33;0.80;;;15.00;1.00;;;;;;4994216;28;20411;-70
2023/08/06 12:47:08;;;;;;;4.57;1.00;;;15.00;1.00;;;;;;4991626;28;20538;-69
2023/08/06 12:49:34;;;;;;;4.30;0.90;;;15.10;1.00;;;;;;4993799;28;21380;-69
2023/08/06 12:51:59;;;;;;;5.30;0.90;;;15.30;1.00;;;;;;4997942;28;20410;-69